createdAt,value
2019-03-02T00:00:23.966Z,7.10
2019-03-02T00:03:07.440Z,7.10
2019-03-02T00:05:38.925Z,7.10
2019-03-02T00:08:13.459Z,7.00
2019-03-02T00:10:48.349Z,7.00
2019-03-02T00:13:18.541Z,7.00
2019-03-02T00:15:48.695Z,7.10
2019-03-02T00:18:19.882Z,7.10
2019-03-02T00:20:55.630Z,7.10
2019-03-02T00:23:29.833Z,7.10
2019-03-02T00:26:06.245Z,7.10
2019-03-02T00:28:36.500Z,7.20
2019-03-02T00:31:08.998Z,7.20
2019-03-02T00:33:42.496Z,7.20
2019-03-02T00:36:19.398Z,7.10
2019-03-02T00:38:48.432Z,7.10
2019-03-02T00:41:31.006Z,7.10
2019-03-02T00:44:09.171Z,7.10
2019-03-02T00:46:39.342Z,7.00
2019-03-02T00:49:10.665Z,7.00
2019-03-02T00:51:42.693Z,7.00
2019-03-02T00:54:14.779Z,7.00
2019-03-02T00:56:57.247Z,6.90
2019-03-02T00:59:39.403Z,6.90
2019-03-02T01:02:08.787Z,7.00
2019-03-02T01:04:41.741Z,6.90
2019-03-02T01:07:12.219Z,6.90
2019-03-02T01:09:43.613Z,6.90
2019-03-02T01:12:16.744Z,6.90
2019-03-02T01:14:47.880Z,6.90
2019-03-02T01:17:19.205Z,6.80
2019-03-02T01:19:52.701Z,6.80
2019-03-02T01:22:22.481Z,6.80
2019-03-02T01:24:55.613Z,6.80
2019-03-02T01:27:27.386Z,6.80
2019-03-02T01:30:00.714Z,6.80
2019-03-02T01:32:34.014Z,6.90
2019-03-02T01:35:04.502Z,6.80
2019-03-02T01:37:36.078Z,6.80
2019-03-02T01:40:10.119Z,6.70
2019-03-02T01:42:45.260Z,6.80
2019-03-02T01:45:15.903Z,6.80
2019-03-02T01:47:51.146Z,6.70
2019-03-02T01:50:21.215Z,6.70
2019-03-02T01:52:54.470Z,6.80
2019-03-02T01:55:27.884Z,6.80
2019-03-02T01:57:58.526Z,6.80
2019-03-02T02:00:30.626Z,6.80
2019-03-02T02:03:03.662Z,6.80
2019-03-02T02:05:35.851Z,6.70
2019-03-02T02:08:07.171Z,6.70
2019-03-02T02:10:39.969Z,6.70
2019-03-02T02:13:11.605Z,6.80
2019-03-02T02:15:41.881Z,6.70
2019-03-02T02:18:13.519Z,6.70
2019-03-02T02:20:46.890Z,6.70
2019-03-02T02:23:20.435Z,6.80
2019-03-02T02:25:53.579Z,6.80
2019-03-02T02:28:29.112Z,6.80
2019-03-02T02:31:01.905Z,6.80
2019-03-02T02:33:31.572Z,6.90
2019-03-02T02:36:04.369Z,6.90
2019-03-02T02:38:36.059Z,7.00
2019-03-02T02:41:07.808Z,7.00
2019-03-02T02:43:38.476Z,7.00
2019-03-02T02:46:08.637Z,7.00
2019-03-02T02:48:41.387Z,7.00
2019-03-02T02:51:14.385Z,7.00
2019-03-02T02:53:46.922Z,7.00
2019-03-02T02:56:19.942Z,7.00
2019-03-02T02:58:56.155Z,7.00
2019-03-02T03:01:33.760Z,7.00
2019-03-02T03:04:04.299Z,7.00
2019-03-02T03:06:35.804Z,7.10
2019-03-02T03:09:20.163Z,7.00
2019-03-02T03:11:50.315Z,7.10
2019-03-02T03:14:21.582Z,7.00
2019-03-02T03:16:54.207Z,6.90
2019-03-02T03:19:31.015Z,6.90
2019-03-02T03:22:07.374Z,6.80
2019-03-02T03:24:39.965Z,6.90
2019-03-02T03:27:13.334Z,6.80
2019-03-02T03:29:44.392Z,6.80
2019-03-02T03:32:16.185Z,6.80
2019-03-02T03:34:49.255Z,6.80
2019-03-02T03:37:21.350Z,6.80
2019-03-02T03:39:53.162Z,6.80
2019-03-02T03:42:24.883Z,6.80
2019-03-02T03:44:59.764Z,6.80
2019-03-02T03:47:34.082Z,6.80
2019-03-02T03:50:09.304Z,6.80
2019-03-02T03:52:37.915Z,6.80
2019-03-02T03:55:11.488Z,6.80
2019-03-02T03:57:44.652Z,6.80
2019-03-02T04:00:19.574Z,6.70
2019-03-02T04:02:51.617Z,6.80
2019-03-02T04:05:21.860Z,6.80
2019-03-02T04:07:52.078Z,6.80
2019-03-02T04:10:25.956Z,6.80
2019-03-02T04:12:54.147Z,6.80
2019-03-02T04:15:26.075Z,6.80
2019-03-02T04:17:57.479Z,6.90
2019-03-02T04:20:37.719Z,6.90
2019-03-02T04:23:10.581Z,6.90
2019-03-02T04:25:42.386Z,6.90
2019-03-02T04:28:15.844Z,6.90
2019-03-02T04:30:47.616Z,6.90
2019-03-02T04:33:18.278Z,6.90
2019-03-02T04:35:50.380Z,6.90
2019-03-02T04:38:21.379Z,6.80
2019-03-02T04:40:51.522Z,6.80
2019-03-02T04:43:23.721Z,6.70
2019-03-02T04:45:56.281Z,6.70
2019-03-02T04:48:26.455Z,6.80
2019-03-02T04:50:59.589Z,6.80
2019-03-02T04:53:32.994Z,6.80
2019-03-02T04:56:09.458Z,6.70
2019-03-02T04:58:43.621Z,6.70
2019-03-02T05:01:14.328Z,6.60
2019-03-02T05:03:58.073Z,6.60
2019-03-02T05:06:28.923Z,6.60
2019-03-02T05:09:01.929Z,6.60
2019-03-02T05:11:35.467Z,6.70
2019-03-02T05:16:40.770Z,6.70
2019-03-02T05:19:13.632Z,6.70
2019-03-02T05:21:44.457Z,6.80
2019-03-02T05:24:14.999Z,6.80
2019-03-02T05:26:47.533Z,6.80
2019-03-02T05:29:19.863Z,6.80
2019-03-02T05:31:50.860Z,6.80
2019-03-02T05:34:28.281Z,6.80
2019-03-02T05:37:02.895Z,6.80
2019-03-02T05:39:32.722Z,6.80
2019-03-02T05:42:03.220Z,6.80
2019-03-02T05:44:33.663Z,6.80
2019-03-02T05:47:04.395Z,6.80
2019-03-02T05:49:36.085Z,6.80
2019-03-02T05:52:08.842Z,6.80
2019-03-02T05:54:42.432Z,6.80
2019-03-02T05:57:13.585Z,6.80
2019-03-02T05:59:47.445Z,6.80
2019-03-02T06:02:19.737Z,6.80
2019-03-02T06:04:53.657Z,6.80
2019-03-02T06:07:29.780Z,6.80
2019-03-02T06:10:01.300Z,6.80
2019-03-02T06:12:31.816Z,6.80
2019-03-02T06:15:04.053Z,6.80
2019-03-02T06:17:35.001Z,6.80
2019-03-02T06:20:05.622Z,6.80
2019-03-02T06:25:19.877Z,6.70
2019-03-02T06:27:49.796Z,6.70
2019-03-02T06:30:21.834Z,6.60
2019-03-02T06:32:52.837Z,6.60
2019-03-02T06:35:24.980Z,6.70
2019-03-02T06:38:06.789Z,6.60
2019-03-02T06:41:00.272Z,6.70
2019-03-02T06:43:32.097Z,6.60
2019-03-02T06:46:44.598Z,6.70
2019-03-02T06:50:04.770Z,6.70
2019-03-02T06:52:35.839Z,6.70
2019-03-02T06:55:28.119Z,6.70
2019-03-02T06:58:11.957Z,6.70
2019-03-02T07:00:45.584Z,6.50
2019-03-02T07:03:28.460Z,6.70
2019-03-02T07:06:04.269Z,6.80
2019-03-02T07:08:36.358Z,6.80
2019-03-02T07:11:07.963Z,6.70
2019-03-02T07:13:41.680Z,6.80
2019-03-02T07:16:20.056Z,6.70
2019-03-02T07:22:41.600Z,6.80
2019-03-02T07:33:23.011Z,6.70
2019-03-02T07:36:02.183Z,6.70
2019-03-02T07:39:15.729Z,6.60
2019-03-02T07:41:54.213Z,6.60
2019-03-02T07:44:27.958Z,6.50
2019-03-02T07:47:03.607Z,6.50
2019-03-02T07:54:18.587Z,6.60
2019-03-02T08:07:11.521Z,6.60
2019-03-02T08:10:06.506Z,6.70
2019-03-02T08:12:41.444Z,6.80
2019-03-02T08:15:27.868Z,6.70
2019-03-02T08:25:50.975Z,6.80
2019-03-02T08:28:22.965Z,6.90
2019-03-02T08:34:56.140Z,6.90
2019-03-02T08:37:29.924Z,7.00
2019-03-02T08:40:01.909Z,7.00
2019-03-02T08:42:32.095Z,7.00
2019-03-02T08:45:53.939Z,7.10
2019-03-02T08:48:26.782Z,7.20
2019-03-02T08:50:56.949Z,7.20
2019-03-02T08:53:27.408Z,7.30
2019-03-02T08:56:00.513Z,7.20
2019-03-02T08:58:43.323Z,7.30
2019-03-02T09:01:18.708Z,7.30
2019-03-02T09:03:51.797Z,7.40
2019-03-02T09:06:42.657Z,7.40
2019-03-02T09:10:03.706Z,7.50
2019-03-02T09:13:01.275Z,7.60
2019-03-02T09:20:03.965Z,7.40
2019-03-02T09:22:36.558Z,7.60
2019-03-02T09:25:19.992Z,7.60
2019-03-02T09:28:46.855Z,7.70
2019-03-02T09:31:54.191Z,7.50
2019-03-02T09:34:37.080Z,7.40
2019-03-02T09:37:10.431Z,7.30
2019-03-02T09:39:51.539Z,7.30
2019-03-02T09:42:21.130Z,7.30
2019-03-02T10:07:25.193Z,7.60
2019-03-02T10:13:51.093Z,7.80
2019-03-02T10:16:25.687Z,7.80
2019-03-02T10:19:07.001Z,7.90
2019-03-02T10:21:39.831Z,8.00
2019-03-02T10:24:13.579Z,7.80
2019-03-02T10:26:46.222Z,8.00
2019-03-02T10:29:19.085Z,8.20
2019-03-02T10:31:59.143Z,8.40
2019-03-02T10:37:43.753Z,9.10
2019-03-02T10:40:19.119Z,9.20
2019-03-02T10:42:59.816Z,9.30
2019-03-02T10:45:52.010Z,9.50
2019-03-02T10:48:22.771Z,9.60
2019-03-02T10:50:55.889Z,9.60
2019-03-02T10:53:27.496Z,9.80
2019-03-02T10:56:12.054Z,9.80
2019-03-02T10:59:04.148Z,9.70
2019-03-02T11:01:43.604Z,9.80
2019-03-02T11:04:48.993Z,9.60
2019-03-02T11:07:54.589Z,9.80
2019-03-02T11:10:59.948Z,9.90
2019-03-02T11:13:51.833Z,10.20
2019-03-02T11:16:44.601Z,10.50
2019-03-02T11:19:38.977Z,10.30
2019-03-02T11:22:38.577Z,10.30
2019-03-02T11:25:23.065Z,10.60
2019-03-02T11:28:10.931Z,10.80
2019-03-02T11:31:02.826Z,11.10
2019-03-02T11:33:46.686Z,11.20
2019-03-02T11:36:35.509Z,10.90
2019-03-02T11:39:28.359Z,10.50
2019-03-02T11:42:10.368Z,10.70
2019-03-02T11:45:02.232Z,11.10
2019-03-02T11:47:58.325Z,10.80
2019-03-02T11:51:03.349Z,11.00
2019-03-02T11:53:53.155Z,11.10
2019-03-02T11:56:46.465Z,11.10
2019-03-02T11:59:45.307Z,11.10
2019-03-02T12:02:35.357Z,11.00
2019-03-02T12:05:25.053Z,10.70
2019-03-02T12:08:11.243Z,11.00
2019-03-02T12:10:51.374Z,11.30
2019-03-02T12:13:34.849Z,11.50
2019-03-02T12:16:26.444Z,11.80
2019-03-02T12:19:20.046Z,11.90
2019-03-02T12:22:07.167Z,12.00
2019-03-02T12:24:58.482Z,12.20
2019-03-02T12:27:55.075Z,11.90
2019-03-02T12:30:42.707Z,11.70
2019-03-02T12:33:38.198Z,11.20
2019-03-02T12:36:17.850Z,11.30
2019-03-02T12:38:55.057Z,11.20
2019-03-02T12:41:48.948Z,11.20
2019-03-02T12:44:32.330Z,11.10
2019-03-02T12:47:24.098Z,11.00
2019-03-02T12:50:13.261Z,11.20
2019-03-02T12:53:05.868Z,11.30
2019-03-02T12:55:56.972Z,11.50
2019-03-02T12:58:37.613Z,11.50
2019-03-02T13:01:20.072Z,11.40
2019-03-02T13:04:10.505Z,11.40
2019-03-02T13:07:03.582Z,11.10
2019-03-02T13:09:55.927Z,10.90
2019-03-02T13:12:39.150Z,11.00
2019-03-02T13:15:42.249Z,11.00
2019-03-02T13:18:25.946Z,11.30
2019-03-02T13:21:16.222Z,11.40
2019-03-02T13:24:08.615Z,11.40
2019-03-02T13:26:50.188Z,11.20
2019-03-02T13:29:45.231Z,11.20
2019-03-02T13:32:56.015Z,11.30
2019-03-02T13:35:47.089Z,11.20
2019-03-02T13:38:39.510Z,11.00
2019-03-02T13:41:31.689Z,11.20
2019-03-02T13:44:21.346Z,11.20
2019-03-02T13:47:10.574Z,11.30
2019-03-02T13:50:10.008Z,11.50
2019-03-02T13:57:01.124Z,11.70
2019-03-02T14:00:03.626Z,11.60
2019-03-02T14:03:10.660Z,11.50
2019-03-02T14:05:55.836Z,11.50
2019-03-02T14:08:39.775Z,11.30
2019-03-02T14:11:39.684Z,11.50
2019-03-02T14:14:31.739Z,11.90
2019-03-02T14:17:24.263Z,11.70
2019-03-02T14:20:20.652Z,11.40
2019-03-02T14:23:02.936Z,11.20
2019-03-02T14:25:56.178Z,11.10
2019-03-02T14:28:54.762Z,11.00
2019-03-02T14:31:48.888Z,11.00
2019-03-02T14:34:36.516Z,10.80
2019-03-02T14:37:13.897Z,10.90
2019-03-02T14:39:58.871Z,11.00
2019-03-02T14:42:58.729Z,10.90
2019-03-02T14:45:34.761Z,10.90
2019-03-02T14:48:27.258Z,10.70
2019-03-02T14:51:20.777Z,10.40
2019-03-02T14:54:09.213Z,10.50
2019-03-02T14:56:53.901Z,10.40
2019-03-02T14:59:39.228Z,10.40
2019-03-02T15:02:28.174Z,10.60
2019-03-02T15:05:20.159Z,10.90
2019-03-02T15:08:01.191Z,11.10
2019-03-02T15:10:53.506Z,11.20
2019-03-02T15:13:42.669Z,11.10
2019-03-02T15:16:26.156Z,11.30
2019-03-02T15:19:15.639Z,11.30
2019-03-02T15:22:08.228Z,11.00
2019-03-02T15:24:56.545Z,11.10
2019-03-02T15:27:40.456Z,11.60
2019-03-02T15:30:29.192Z,12.10
2019-03-02T15:33:19.271Z,12.20
2019-03-02T15:36:15.501Z,12.50
2019-03-02T15:39:16.662Z,12.40
2019-03-02T15:42:13.901Z,12.30
2019-03-02T15:44:50.781Z,11.80
2019-03-02T15:47:47.409Z,11.50
2019-03-02T15:50:37.287Z,11.30
2019-03-02T15:53:32.720Z,11.00
2019-03-02T15:56:23.405Z,11.00
2019-03-02T15:59:16.448Z,11.00
2019-03-02T16:02:19.135Z,10.90
2019-03-02T16:05:12.457Z,10.70
2019-03-02T16:08:05.143Z,10.50
2019-03-02T16:10:53.655Z,10.50
2019-03-02T16:13:50.139Z,10.40
2019-03-02T16:16:42.892Z,10.50
2019-03-02T16:19:52.961Z,10.50
2019-03-02T16:22:37.688Z,10.50
2019-03-02T16:28:21.911Z,10.50
2019-03-02T16:31:28.746Z,10.40
2019-03-02T16:34:12.635Z,10.40
2019-03-02T16:37:00.494Z,10.50
2019-03-02T16:39:42.770Z,10.40
2019-03-02T16:42:20.455Z,10.20
2019-03-02T16:44:58.907Z,10.30
2019-03-02T16:47:44.976Z,10.30
2019-03-02T16:50:35.639Z,10.30
2019-03-02T16:53:39.764Z,10.30
2019-03-02T16:56:44.545Z,10.30
2019-03-02T16:59:45.334Z,10.30
2019-03-02T17:02:34.833Z,10.30
2019-03-02T17:05:14.679Z,10.10
2019-03-02T17:08:10.011Z,10.10
2019-03-02T17:11:01.004Z,10.00
2019-03-02T17:13:51.831Z,9.90
2019-03-02T17:16:47.000Z,9.80
2019-03-02T17:19:36.178Z,9.70
2019-03-02T17:22:32.481Z,9.60
2019-03-02T17:25:13.551Z,9.50
2019-03-02T17:28:04.763Z,9.40
2019-03-02T17:30:58.203Z,9.40
2019-03-02T17:33:54.144Z,9.30
2019-03-02T17:36:41.625Z,9.30
2019-03-02T17:39:39.356Z,9.30
2019-03-02T17:42:28.097Z,9.30
2019-03-02T17:45:21.204Z,9.20
2019-03-02T17:48:05.035Z,9.20
2019-03-02T17:50:45.579Z,9.20
2019-03-02T17:53:29.326Z,9.10
2019-03-02T17:56:23.109Z,9.00
2019-03-02T17:59:11.548Z,9.00
2019-03-02T18:02:05.017Z,9.00
2019-03-02T18:04:53.313Z,8.90
2019-03-02T18:07:38.605Z,8.90
2019-03-02T18:10:29.602Z,8.90
2019-03-02T18:13:09.692Z,8.90
2019-03-02T18:16:05.850Z,9.00
2019-03-02T18:18:36.533Z,9.00
2019-03-02T18:21:07.979Z,9.10
2019-03-02T18:23:39.817Z,9.10
2019-03-02T18:26:11.214Z,9.10
2019-03-02T18:28:41.637Z,9.10
2019-03-02T18:31:16.076Z,9.00
2019-03-02T18:33:56.150Z,9.00
2019-03-02T18:36:27.954Z,8.90
2019-03-02T18:38:58.183Z,8.80
2019-03-02T18:41:29.020Z,8.80
2019-03-02T18:44:02.603Z,8.70
2019-03-02T18:46:33.241Z,8.60
2019-03-02T18:49:23.437Z,8.60
2019-03-02T18:52:26.427Z,8.70
2019-03-02T18:54:56.601Z,8.70
2019-03-02T18:57:28.508Z,8.70
2019-03-02T19:00:08.270Z,8.60
2019-03-02T19:02:44.096Z,8.60
2019-03-02T19:05:41.320Z,8.60
2019-03-02T19:08:18.816Z,8.70
2019-03-02T19:11:02.107Z,8.70
2019-03-02T19:13:32.773Z,8.70
2019-03-02T19:16:03.036Z,8.70
2019-03-02T19:18:33.234Z,8.80
2019-03-02T19:21:03.419Z,8.70
2019-03-02T19:23:33.640Z,8.80
2019-03-02T19:26:04.069Z,8.90
2019-03-02T19:28:36.034Z,8.80
2019-03-02T19:31:06.244Z,8.90
2019-03-02T19:33:37.770Z,8.90
2019-03-02T19:36:07.944Z,8.90
2019-03-02T19:38:38.097Z,9.00
2019-03-02T19:41:09.239Z,8.90
2019-03-02T19:43:42.730Z,8.90
2019-03-02T19:46:14.116Z,8.80
2019-03-02T19:48:44.333Z,8.80
2019-03-02T19:51:15.272Z,8.80
2019-03-02T19:53:45.889Z,8.70
2019-03-02T19:56:16.902Z,8.70
2019-03-02T19:58:47.890Z,8.70
2019-03-02T20:01:18.129Z,8.70
2019-03-02T20:03:50.009Z,8.60
2019-03-02T20:06:21.503Z,8.60
2019-03-02T20:08:53.047Z,8.50
2019-03-02T20:11:25.439Z,8.30
2019-03-02T20:13:55.864Z,8.30
2019-03-02T20:16:27.919Z,8.30
2019-03-02T20:18:59.571Z,8.30
2019-03-02T20:21:30.890Z,8.20
2019-03-02T20:24:01.507Z,8.10
2019-03-02T20:26:34.149Z,8.10
2019-03-02T20:29:04.677Z,8.00
2019-03-02T20:31:35.989Z,7.90
2019-03-02T20:34:06.242Z,7.80
2019-03-02T20:36:37.614Z,7.70
2019-03-02T20:39:34.710Z,7.70
2019-03-02T20:42:05.155Z,7.70
2019-03-02T20:44:45.615Z,7.60
2019-03-02T20:47:15.913Z,7.60
2019-03-02T20:49:46.109Z,7.60
2019-03-02T20:52:18.423Z,7.60
2019-03-02T20:54:51.215Z,7.50
2019-03-02T20:57:25.688Z,7.40
2019-03-02T20:59:57.625Z,7.40
2019-03-02T21:02:28.746Z,7.40
2019-03-02T21:05:02.451Z,7.50
2019-03-02T21:07:32.610Z,7.60
2019-03-02T21:10:03.251Z,7.60
2019-03-02T21:12:33.847Z,7.70
2019-03-02T21:15:06.333Z,7.70
2019-03-02T21:17:38.396Z,7.70
2019-03-02T21:20:14.815Z,7.80
2019-03-02T21:22:45.276Z,7.90
2019-03-02T21:25:19.466Z,7.90
2019-03-02T21:27:51.542Z,8.00
2019-03-02T21:30:22.960Z,8.00
2019-03-02T21:32:55.533Z,8.00
2019-03-02T21:35:27.054Z,8.10
2019-03-02T21:37:58.200Z,8.10
2019-03-02T21:40:33.311Z,8.20
2019-03-02T21:43:03.594Z,8.20
2019-03-02T21:45:33.830Z,8.00
2019-03-02T21:48:04.896Z,8.10
2019-03-02T21:50:35.188Z,8.10
2019-03-02T21:53:06.019Z,8.10
2019-03-02T21:55:37.529Z,8.10
2019-03-02T21:58:09.739Z,8.10
2019-03-02T22:00:42.996Z,8.00
2019-03-02T22:03:13.537Z,8.10
2019-03-02T22:05:44.258Z,8.00
2019-03-02T22:08:15.032Z,8.10
2019-03-02T22:10:52.451Z,8.10
2019-03-02T22:13:22.696Z,8.20
2019-03-02T22:15:53.040Z,8.10
2019-03-02T22:18:24.771Z,8.10
2019-03-02T22:20:55.248Z,8.10
2019-03-02T22:23:27.178Z,8.10
2019-03-02T22:26:02.044Z,8.10
2019-03-02T22:28:34.775Z,8.20
2019-03-02T22:31:05.862Z,8.20
2019-03-02T22:33:38.701Z,8.20
2019-03-02T22:36:09.030Z,8.30
2019-03-02T22:38:40.863Z,8.30
2019-03-02T22:41:12.857Z,8.20
2019-03-02T22:43:44.464Z,8.20
2019-03-02T22:46:14.618Z,8.30
2019-03-02T22:48:45.161Z,8.20
2019-03-02T22:51:17.943Z,8.20
2019-03-02T22:53:50.199Z,8.20
2019-03-02T22:56:22.075Z,8.20
2019-03-02T22:58:51.339Z,8.10
2019-03-02T23:01:38.868Z,8.10
2019-03-02T23:04:10.073Z,8.10
2019-03-02T23:06:42.531Z,8.10
2019-03-02T23:09:15.426Z,8.00
2019-03-02T23:11:49.468Z,8.00
2019-03-02T23:14:22.617Z,7.90
2019-03-02T23:16:52.795Z,7.90
2019-03-02T23:19:24.753Z,7.80
2019-03-02T23:21:59.011Z,7.80
2019-03-02T23:24:29.743Z,8.00
2019-03-02T23:27:00.311Z,8.00
2019-03-02T23:29:32.207Z,8.00
2019-03-02T23:32:02.443Z,8.00
2019-03-02T23:34:37.124Z,8.10
2019-03-02T23:37:06.278Z,8.10
2019-03-02T23:39:38.047Z,8.10
2019-03-02T23:42:08.576Z,8.10
2019-03-02T23:44:38.723Z,8.10
2019-03-02T23:47:09.862Z,8.10
2019-03-02T23:49:40.204Z,8.20
2019-03-02T23:52:13.177Z,8.20
2019-03-02T23:54:43.381Z,8.30
2019-03-02T23:57:13.591Z,8.30
2019-03-02T23:59:43.806Z,8.20
